sensor_id;sensor_type;location;lat;lon;timestamp;P1;durP1;ratioP1;P2;durP2;ratioP2
19087;SDS011;9676;50.916;13.352;2022-08-03T00:01:44;10.73;;;9.73;;
19087;SDS011;9676;50.916;13.352;2022-08-03T00:04:33;10.60;;;9.60;;
19087;SDS011;9676;50.916;13.352;2022-08-03T00:07:23;10.10;;;9.20;;
19087;SDS011;9676;50.916;13.352;2022-08-03T00:10:14;10.87;;;9.83;;
19087;SDS011;9676;50.916;13.352;2022-08-03T00:13:03;10.77;;;9.67;;
19087;SDS011;9676;50.916;13.352;2022-08-03T00:15:53;10.70;;;9.70;;
19087;SDS011;9676;50.916;13.352;2022-08-03T00:18:43;24.50;;;10.00;;
19087;SDS011;9676;50.916;13.352;2022-08-03T00:21:32;10.60;;;9.50;;
19087;SDS011;9676;50.916;13.352;2022-08-03T00:24:22;10.60;;;9.60;;
19087;SDS011;9676;50.916;13.352;2022-08-03T00:27:13;10.50;;;9.60;;
19087;SDS011;9676;50.916;13.352;2022-08-03T00:30:03;10.70;;;9.70;;
19087;SDS011;9676;50.916;13.352;2022-08-03T00:32:54;10.40;;;9.50;;
19087;SDS011;9676;50.916;13.352;2022-08-03T00:35:45;10.70;;;9.70;;
19087;SDS011;9676;50.916;13.352;2022-08-03T00:38:37;10.50;;;9.60;;
19087;SDS011;9676;50.916;13.352;2022-08-03T00:41:26;10.60;;;9.70;;
19087;SDS011;9676;50.916;13.352;2022-08-03T00:44:17;10.77;;;9.70;;
19087;SDS011;9676;50.916;13.352;2022-08-03T00:47:07;10.90;;;9.80;;
19087;SDS011;9676;50.916;13.352;2022-08-03T00:49:57;10.60;;;9.60;;
19087;SDS011;9676;50.916;13.352;2022-08-03T00:52:46;10.80;;;9.80;;
19087;SDS011;9676;50.916;13.352;2022-08-03T00:55:36;10.68;;;9.68;;
19087;SDS011;9676;50.916;13.352;2022-08-03T00:58:26;11.53;;;10.00;;
19087;SDS011;9676;50.916;13.352;2022-08-03T01:01:17;11.70;;;10.53;;
19087;SDS011;9676;50.916;13.352;2022-08-03T01:04:06;11.37;;;10.17;;
19087;SDS011;9676;50.916;13.352;2022-08-03T01:06:57;11.60;;;10.43;;
19087;SDS011;9676;50.916;13.352;2022-08-03T01:09:59;11.10;;;10.00;;
19087;SDS011;9676;50.916;13.352;2022-08-03T01:12:53;11.10;;;10.10;;
19087;SDS011;9676;50.916;13.352;2022-08-03T01:15:50;11.40;;;10.30;;
19087;SDS011;9676;50.916;13.352;2022-08-03T01:18:48;11.07;;;9.97;;
19087;SDS011;9676;50.916;13.352;2022-08-03T01:21:46;11.00;;;9.90;;
19087;SDS011;9676;50.916;13.352;2022-08-03T01:24:49;11.30;;;9.83;;
19087;SDS011;9676;50.916;13.352;2022-08-03T01:27:49;10.83;;;9.83;;
19087;SDS011;9676;50.916;13.352;2022-08-03T01:30:50;10.80;;;9.80;;
19087;SDS011;9676;50.916;13.352;2022-08-03T01:33:46;12.97;;;10.37;;
19087;SDS011;9676;50.916;13.352;2022-08-03T01:36:50;10.80;;;9.80;;
19087;SDS011;9676;50.916;13.352;2022-08-03T01:39:44;12.07;;;10.87;;
19087;SDS011;9676;50.916;13.352;2022-08-03T01:42:34;10.90;;;9.70;;
19087;SDS011;9676;50.916;13.352;2022-08-03T01:45:26;11.40;;;10.30;;
19087;SDS011;9676;50.916;13.352;2022-08-03T01:48:21;11.57;;;10.47;;
19087;SDS011;9676;50.916;13.352;2022-08-03T01:51:11;11.20;;;10.20;;
19087;SDS011;9676;50.916;13.352;2022-08-03T01:54:03;11.30;;;10.20;;
19087;SDS011;9676;50.916;13.352;2022-08-03T01:56:55;11.17;;;9.90;;
19087;SDS011;9676;50.916;13.352;2022-08-03T01:59:46;11.20;;;10.10;;
19087;SDS011;9676;50.916;13.352;2022-08-03T02:02:38;11.00;;;10.00;;
19087;SDS011;9676;50.916;13.352;2022-08-03T02:05:31;11.27;;;10.17;;
19087;SDS011;9676;50.916;13.352;2022-08-03T02:08:23;11.20;;;10.20;;
19087;SDS011;9676;50.916;13.352;2022-08-03T02:11:13;11.40;;;10.30;;
19087;SDS011;9676;50.916;13.352;2022-08-03T02:14:04;11.83;;;10.67;;
19087;SDS011;9676;50.916;13.352;2022-08-03T02:16:54;11.83;;;10.63;;
19087;SDS011;9676;50.916;13.352;2022-08-03T02:19:44;11.10;;;10.00;;
19087;SDS011;9676;50.916;13.352;2022-08-03T02:22:36;11.50;;;10.40;;
19087;SDS011;9676;50.916;13.352;2022-08-03T02:25:28;11.60;;;10.27;;
19087;SDS011;9676;50.916;13.352;2022-08-03T02:28:20;10.97;;;9.90;;
19087;SDS011;9676;50.916;13.352;2022-08-03T02:31:15;11.10;;;10.10;;
19087;SDS011;9676;50.916;13.352;2022-08-03T02:34:08;11.20;;;10.00;;
19087;SDS011;9676;50.916;13.352;2022-08-03T02:37:02;10.90;;;9.80;;
19087;SDS011;9676;50.916;13.352;2022-08-03T02:39:56;11.10;;;10.10;;
19087;SDS011;9676;50.916;13.352;2022-08-03T02:42:50;10.70;;;9.70;;
19087;SDS011;9676;50.916;13.352;2022-08-03T02:45:44;11.47;;;10.37;;
19087;SDS011;9676;50.916;13.352;2022-08-03T02:48:36;14.93;;;10.00;;
19087;SDS011;9676;50.916;13.352;2022-08-03T02:51:29;11.30;;;10.20;;
19087;SDS011;9676;50.916;13.352;2022-08-03T02:54:22;10.83;;;9.83;;
19087;SDS011;9676;50.916;13.352;2022-08-03T02:57:14;11.00;;;10.00;;
19087;SDS011;9676;50.916;13.352;2022-08-03T03:00:06;11.00;;;10.00;;
19087;SDS011;9676;50.916;13.352;2022-08-03T03:02:57;11.23;;;10.17;;
19087;SDS011;9676;50.916;13.352;2022-08-03T03:05:50;11.10;;;10.00;;
19087;SDS011;9676;50.916;13.352;2022-08-03T03:08:44;11.10;;;10.10;;
19087;SDS011;9676;50.916;13.352;2022-08-03T03:11:35;11.27;;;10.17;;
19087;SDS011;9676;50.916;13.352;2022-08-03T03:14:28;10.93;;;9.93;;
19087;SDS011;9676;50.916;13.352;2022-08-03T03:17:20;11.07;;;10.07;;
19087;SDS011;9676;50.916;13.352;2022-08-03T03:20:10;11.33;;;10.33;;
19087;SDS011;9676;50.916;13.352;2022-08-03T03:23:00;10.87;;;9.87;;
19087;SDS011;9676;50.916;13.352;2022-08-03T03:25:51;11.03;;;9.93;;
19087;SDS011;9676;50.916;13.352;2022-08-03T03:28:42;11.40;;;10.17;;
19087;SDS011;9676;50.916;13.352;2022-08-03T03:31:34;10.90;;;10.00;;
19087;SDS011;9676;50.916;13.352;2022-08-03T03:34:23;10.87;;;9.90;;
19087;SDS011;9676;50.916;13.352;2022-08-03T03:37:15;10.97;;;9.97;;
19087;SDS011;9676;50.916;13.352;2022-08-03T03:40:05;11.27;;;10.27;;
19087;SDS011;9676;50.916;13.352;2022-08-03T03:42:56;13.90;;;10.03;;
19087;SDS011;9676;50.916;13.352;2022-08-03T03:45:46;11.20;;;10.20;;
19087;SDS011;9676;50.916;13.352;2022-08-03T03:48:37;10.83;;;9.83;;
19087;SDS011;9676;50.916;13.352;2022-08-03T03:51:27;10.90;;;9.90;;
19087;SDS011;9676;50.916;13.352;2022-08-03T03:54:16;11.30;;;10.20;;
19087;SDS011;9676;50.916;13.352;2022-08-03T03:57:06;11.27;;;10.27;;
19087;SDS011;9676;50.916;13.352;2022-08-03T03:59:59;10.90;;;9.90;;
19087;SDS011;9676;50.916;13.352;2022-08-03T04:03:09;12.90;;;9.90;;
19087;SDS011;9676;50.916;13.352;2022-08-03T04:06:00;10.97;;;9.97;;
19087;SDS011;9676;50.916;13.352;2022-08-03T04:09:07;10.40;;;9.50;;
19087;SDS011;9676;50.916;13.352;2022-08-03T04:12:16;11.07;;;10.07;;
19087;SDS011;9676;50.916;13.352;2022-08-03T04:15:07;11.17;;;10.07;;
19087;SDS011;9676;50.916;13.352;2022-08-03T04:17:58;11.23;;;10.23;;
19087;SDS011;9676;50.916;13.352;2022-08-03T04:20:49;10.87;;;9.87;;
19087;SDS011;9676;50.916;13.352;2022-08-03T04:23:43;10.90;;;9.90;;
19087;SDS011;9676;50.916;13.352;2022-08-03T04:26:37;11.00;;;10.00;;
19087;SDS011;9676;50.916;13.352;2022-08-03T04:29:29;10.77;;;9.77;;
19087;SDS011;9676;50.916;13.352;2022-08-03T04:32:34;10.97;;;9.97;;
19087;SDS011;9676;50.916;13.352;2022-08-03T04:35:32;11.00;;;10.00;;
19087;SDS011;9676;50.916;13.352;2022-08-03T04:38:48;10.30;;;9.40;;
19087;SDS011;9676;50.916;13.352;2022-08-03T04:41:45;10.60;;;9.70;;
19087;SDS011;9676;50.916;13.352;2022-08-03T04:44:54;10.70;;;9.60;;
19087;SDS011;9676;50.916;13.352;2022-08-03T04:47:47;10.23;;;9.33;;
19087;SDS011;9676;50.916;13.352;2022-08-03T04:50:38;10.10;;;9.20;;
19087;SDS011;9676;50.916;13.352;2022-08-03T04:53:29;10.53;;;9.57;;
19087;SDS011;9676;50.916;13.352;2022-08-03T04:56:20;10.57;;;9.57;;
19087;SDS011;9676;50.916;13.352;2022-08-03T04:59:09;10.33;;;9.33;;
19087;SDS011;9676;50.916;13.352;2022-08-03T05:01:59;11.07;;;9.77;;
19087;SDS011;9676;50.916;13.352;2022-08-03T05:04:49;11.13;;;9.67;;
19087;SDS011;9676;50.916;13.352;2022-08-03T05:07:38;10.50;;;9.50;;
19087;SDS011;9676;50.916;13.352;2022-08-03T05:10:28;11.77;;;9.40;;
19087;SDS011;9676;50.916;13.352;2022-08-03T05:13:19;10.40;;;9.37;;
19087;SDS011;9676;50.916;13.352;2022-08-03T05:16:08;10.30;;;9.30;;
19087;SDS011;9676;50.916;13.352;2022-08-03T05:18:58;10.23;;;9.27;;
19087;SDS011;9676;50.916;13.352;2022-08-03T05:21:47;10.10;;;9.10;;
19087;SDS011;9676;50.916;13.352;2022-08-03T05:24:39;10.00;;;9.00;;
19087;SDS011;9676;50.916;13.352;2022-08-03T05:27:28;9.90;;;9.00;;
19087;SDS011;9676;50.916;13.352;2022-08-03T05:30:19;9.70;;;8.80;;
19087;SDS011;9676;50.916;13.352;2022-08-03T05:33:20;9.90;;;8.93;;
19087;SDS011;9676;50.916;13.352;2022-08-03T05:36:09;9.83;;;8.90;;
19087;SDS011;9676;50.916;13.352;2022-08-03T05:38:58;9.90;;;8.70;;
19087;SDS011;9676;50.916;13.352;2022-08-03T05:41:49;9.80;;;8.80;;
19087;SDS011;9676;50.916;13.352;2022-08-03T05:44:38;10.57;;;9.00;;
19087;SDS011;9676;50.916;13.352;2022-08-03T05:47:29;9.30;;;8.50;;
19087;SDS011;9676;50.916;13.352;2022-08-03T05:50:19;9.47;;;8.67;;
19087;SDS011;9676;50.916;13.352;2022-08-03T05:53:09;10.13;;;8.60;;
19087;SDS011;9676;50.916;13.352;2022-08-03T05:55:58;9.50;;;8.50;;
19087;SDS011;9676;50.916;13.352;2022-08-03T05:58:59;9.10;;;8.20;;
19087;SDS011;9676;50.916;13.352;2022-08-03T06:02:09;9.50;;;8.60;;
19087;SDS011;9676;50.916;13.352;2022-08-03T06:04:59;9.13;;;8.27;;
19087;SDS011;9676;50.916;13.352;2022-08-03T06:07:49;9.53;;;8.63;;
19087;SDS011;9676;50.916;13.352;2022-08-03T06:10:39;8.98;;;8.18;;
19087;SDS011;9676;50.916;13.352;2022-08-03T06:13:28;9.30;;;8.50;;
19087;SDS011;9676;50.916;13.352;2022-08-03T06:16:18;9.10;;;8.30;;
19087;SDS011;9676;50.916;13.352;2022-08-03T06:19:08;9.52;;;8.38;;
19087;SDS011;9676;50.916;13.352;2022-08-03T06:21:59;16.60;;;8.30;;
19087;SDS011;9676;50.916;13.352;2022-08-03T06:24:49;9.30;;;8.50;;
19087;SDS011;9676;50.916;13.352;2022-08-03T06:27:40;8.82;;;7.93;;
19087;SDS011;9676;50.916;13.352;2022-08-03T06:30:29;8.70;;;8.00;;
19087;SDS011;9676;50.916;13.352;2022-08-03T06:33:19;8.15;;;7.55;;
19087;SDS011;9676;50.916;13.352;2022-08-03T06:36:08;8.35;;;7.65;;
19087;SDS011;9676;50.916;13.352;2022-08-03T06:39:00;8.60;;;7.95;;
19087;SDS011;9676;50.916;13.352;2022-08-03T06:41:51;8.20;;;7.65;;
19087;SDS011;9676;50.916;13.352;2022-08-03T06:44:41;7.75;;;7.25;;
19087;SDS011;9676;50.916;13.352;2022-08-03T06:47:31;8.38;;;7.70;;
19087;SDS011;9676;50.916;13.352;2022-08-03T06:50:20;8.52;;;7.75;;
19087;SDS011;9676;50.916;13.352;2022-08-03T06:53:12;8.07;;;7.47;;
19087;SDS011;9676;50.916;13.352;2022-08-03T06:56:09;8.40;;;7.70;;
19087;SDS011;9676;50.916;13.352;2022-08-03T06:58:58;8.00;;;7.45;;
19087;SDS011;9676;50.916;13.352;2022-08-03T07:01:48;7.93;;;7.43;;
19087;SDS011;9676;50.916;13.352;2022-08-03T07:04:38;8.10;;;7.50;;
19087;SDS011;9676;50.916;13.352;2022-08-03T07:07:27;8.57;;;7.95;;
19087;SDS011;9676;50.916;13.352;2022-08-03T07:10:17;8.30;;;7.70;;
19087;SDS011;9676;50.916;13.352;2022-08-03T07:13:08;7.93;;;7.43;;
19087;SDS011;9676;50.916;13.352;2022-08-03T07:15:58;7.72;;;7.32;;
19087;SDS011;9676;50.916;13.352;2022-08-03T07:18:48;7.82;;;7.32;;
19087;SDS011;9676;50.916;13.352;2022-08-03T07:21:39;7.82;;;7.22;;
19087;SDS011;9676;50.916;13.352;2022-08-03T07:24:28;7.28;;;6.88;;
19087;SDS011;9676;50.916;13.352;2022-08-03T07:27:18;7.35;;;6.85;;
19087;SDS011;9676;50.916;13.352;2022-08-03T07:30:09;7.25;;;6.85;;
19087;SDS011;9676;50.916;13.352;2022-08-03T07:33:00;7.38;;;6.88;;
19087;SDS011;9676;50.916;13.352;2022-08-03T07:35:50;7.20;;;6.75;;
19087;SDS011;9676;50.916;13.352;2022-08-03T07:38:40;7.65;;;7.05;;
19087;SDS011;9676;50.916;13.352;2022-08-03T07:41:29;7.80;;;7.20;;
19087;SDS011;9676;50.916;13.352;2022-08-03T07:44:19;6.93;;;6.53;;
19087;SDS011;9676;50.916;13.352;2022-08-03T07:47:10;7.13;;;6.75;;
19087;SDS011;9676;50.916;13.352;2022-08-03T07:50:08;7.85;;;7.30;;
19087;SDS011;9676;50.916;13.352;2022-08-03T07:52:58;7.53;;;7.13;;
19087;SDS011;9676;50.916;13.352;2022-08-03T07:55:47;7.47;;;6.97;;
19087;SDS011;9676;50.916;13.352;2022-08-03T07:58:37;7.20;;;6.80;;
19087;SDS011;9676;50.916;13.352;2022-08-03T08:01:27;6.93;;;6.50;;
19087;SDS011;9676;50.916;13.352;2022-08-03T08:04:20;7.13;;;6.72;;
19087;SDS011;9676;50.916;13.352;2022-08-03T08:07:10;6.10;;;5.80;;
19087;SDS011;9676;50.916;13.352;2022-08-03T08:10:01;7.35;;;6.95;;
19087;SDS011;9676;50.916;13.352;2022-08-03T08:12:52;7.57;;;7.10;;
19087;SDS011;9676;50.916;13.352;2022-08-03T08:15:42;6.47;;;6.18;;
19087;SDS011;9676;50.916;13.352;2022-08-03T08:18:33;7.47;;;6.72;;
19087;SDS011;9676;50.916;13.352;2022-08-03T08:21:24;7.20;;;6.80;;
19087;SDS011;9676;50.916;13.352;2022-08-03T08:24:33;6.68;;;6.28;;
19087;SDS011;9676;50.916;13.352;2022-08-03T08:27:23;6.75;;;6.35;;
19087;SDS011;9676;50.916;13.352;2022-08-03T08:30:13;5.97;;;5.68;;
19087;SDS011;9676;50.916;13.352;2022-08-03T08:33:05;6.68;;;6.28;;
19087;SDS011;9676;50.916;13.352;2022-08-03T08:36:09;6.20;;;5.90;;
19087;SDS011;9676;50.916;13.352;2022-08-03T08:39:03;5.72;;;5.32;;
19087;SDS011;9676;50.916;13.352;2022-08-03T08:41:52;6.30;;;5.90;;
19087;SDS011;9676;50.916;13.352;2022-08-03T08:44:42;5.82;;;5.53;;
19087;SDS011;9676;50.916;13.352;2022-08-03T08:47:31;5.80;;;5.50;;
19087;SDS011;9676;50.916;13.352;2022-08-03T08:50:38;5.28;;;5.00;;
19087;SDS011;9676;50.916;13.352;2022-08-03T08:53:28;6.10;;;5.63;;
19087;SDS011;9676;50.916;13.352;2022-08-03T08:56:21;5.57;;;5.28;;
19087;SDS011;9676;50.916;13.352;2022-08-03T08:59:13;6.10;;;5.80;;
19087;SDS011;9676;50.916;13.352;2022-08-03T09:02:03;5.93;;;5.63;;
19087;SDS011;9676;50.916;13.352;2022-08-03T09:04:52;6.70;;;6.18;;
19087;SDS011;9676;50.916;13.352;2022-08-03T09:07:43;6.30;;;6.00;;
19087;SDS011;9676;50.916;13.352;2022-08-03T09:10:33;6.00;;;5.70;;
19087;SDS011;9676;50.916;13.352;2022-08-03T09:13:24;6.20;;;5.82;;
19087;SDS011;9676;50.916;13.352;2022-08-03T09:16:16;6.85;;;6.35;;
19087;SDS011;9676;50.916;13.352;2022-08-03T09:19:11;5.97;;;5.65;;
19087;SDS011;9676;50.916;13.352;2022-08-03T09:22:11;6.13;;;5.72;;
19087;SDS011;9676;50.916;13.352;2022-08-03T09:25:05;6.60;;;6.03;;
19087;SDS011;9676;50.916;13.352;2022-08-03T09:28:14;5.35;;;5.03;;
19087;SDS011;9676;50.916;13.352;2022-08-03T09:31:30;5.78;;;5.47;;
19087;SDS011;9676;50.916;13.352;2022-08-03T09:34:22;6.13;;;5.82;;
19087;SDS011;9676;50.916;13.352;2022-08-03T09:37:15;6.53;;;6.22;;
19087;SDS011;9676;50.916;13.352;2022-08-03T09:40:32;6.53;;;5.93;;
19087;SDS011;9676;50.916;13.352;2022-08-03T09:43:23;6.60;;;6.15;;
19087;SDS011;9676;50.916;13.352;2022-08-03T09:46:14;6.55;;;6.05;;
19087;SDS011;9676;50.916;13.352;2022-08-03T09:49:11;6.72;;;6.38;;
19087;SDS011;9676;50.916;13.352;2022-08-03T09:52:10;5.88;;;5.57;;
19087;SDS011;9676;50.916;13.352;2022-08-03T09:55:22;5.95;;;5.65;;
19087;SDS011;9676;50.916;13.352;2022-08-03T09:58:31;5.82;;;5.40;;
19087;SDS011;9676;50.916;13.352;2022-08-03T10:01:21;6.35;;;5.95;;
19087;SDS011;9676;50.916;13.352;2022-08-03T10:04:23;5.53;;;5.22;;
19087;SDS011;9676;50.916;13.352;2022-08-03T10:07:13;6.53;;;6.03;;
19087;SDS011;9676;50.916;13.352;2022-08-03T10:10:03;5.80;;;5.45;;
19087;SDS011;9676;50.916;13.352;2022-08-03T10:13:14;5.60;;;5.30;;
19087;SDS011;9676;50.916;13.352;2022-08-03T10:16:05;5.78;;;5.47;;
19087;SDS011;9676;50.916;13.352;2022-08-03T10:19:11;5.93;;;5.63;;
19087;SDS011;9676;50.916;13.352;2022-08-03T10:22:03;5.30;;;5.10;;
19087;SDS011;9676;50.916;13.352;2022-08-03T10:25:01;5.43;;;5.10;;
19087;SDS011;9676;50.916;13.352;2022-08-03T10:27:54;5.95;;;5.65;;
19087;SDS011;9676;50.916;13.352;2022-08-03T10:30:47;6.18;;;5.88;;
19087;SDS011;9676;50.916;13.352;2022-08-03T10:33:40;6.15;;;5.85;;
19087;SDS011;9676;50.916;13.352;2022-08-03T10:36:39;5.80;;;5.50;;
19087;SDS011;9676;50.916;13.352;2022-08-03T10:39:30;5.88;;;5.57;;
19087;SDS011;9676;50.916;13.352;2022-08-03T10:42:20;6.20;;;5.90;;
19087;SDS011;9676;50.916;13.352;2022-08-03T10:45:14;5.85;;;5.55;;
19087;SDS011;9676;50.916;13.352;2022-08-03T10:48:07;6.00;;;5.70;;
19087;SDS011;9676;50.916;13.352;2022-08-03T10:50:58;6.43;;;6.05;;
19087;SDS011;9676;50.916;13.352;2022-08-03T10:53:48;6.47;;;5.97;;
19087;SDS011;9676;50.916;13.352;2022-08-03T10:56:43;5.82;;;5.53;;
19087;SDS011;9676;50.916;13.352;2022-08-03T11:00:06;6.45;;;6.05;;
19087;SDS011;9676;50.916;13.352;2022-08-03T11:03:04;5.70;;;5.40;;
19087;SDS011;9676;50.916;13.352;2022-08-03T11:06:13;7.05;;;6.65;;
19087;SDS011;9676;50.916;13.352;2022-08-03T11:12:21;5.50;;;5.20;;
19087;SDS011;9676;50.916;13.352;2022-08-03T11:15:25;6.65;;;6.25;;
19087;SDS011;9676;50.916;13.352;2022-08-03T11:18:20;6.30;;;5.90;;
19087;SDS011;9676;50.916;13.352;2022-08-03T11:21:13;6.75;;;6.25;;
19087;SDS011;9676;50.916;13.352;2022-08-03T11:24:02;6.85;;;6.45;;
19087;SDS011;9676;50.916;13.352;2022-08-03T11:30:09;8.02;;;7.43;;
19087;SDS011;9676;50.916;13.352;2022-08-03T11:33:19;8.00;;;7.40;;
19087;SDS011;9676;50.916;13.352;2022-08-03T11:36:17;8.40;;;7.65;;
19087;SDS011;9676;50.916;13.352;2022-08-03T11:39:18;8.57;;;7.78;;
19087;SDS011;9676;50.916;13.352;2022-08-03T11:45:33;8.25;;;7.65;;
19087;SDS011;9676;50.916;13.352;2022-08-03T11:48:24;8.38;;;7.70;;
19087;SDS011;9676;50.916;13.352;2022-08-03T11:51:22;8.43;;;7.82;;
19087;SDS011;9676;50.916;13.352;2022-08-03T11:54:13;8.60;;;7.90;;
19087;SDS011;9676;50.916;13.352;2022-08-03T11:57:07;8.80;;;7.90;;
19087;SDS011;9676;50.916;13.352;2022-08-03T11:59:56;8.63;;;8.00;;
19087;SDS011;9676;50.916;13.352;2022-08-03T12:03:04;8.80;;;8.10;;
19087;SDS011;9676;50.916;13.352;2022-08-03T12:05:56;10.30;;;9.30;;
19087;SDS011;9676;50.916;13.352;2022-08-03T12:08:48;10.93;;;9.83;;
19087;SDS011;9676;50.916;13.352;2022-08-03T12:11:38;10.10;;;9.20;;
19087;SDS011;9676;50.916;13.352;2022-08-03T12:14:45;9.30;;;8.40;;
19087;SDS011;9676;50.916;13.352;2022-08-03T12:17:39;11.43;;;9.03;;
19087;SDS011;9676;50.916;13.352;2022-08-03T12:20:30;9.23;;;8.43;;
19087;SDS011;9676;50.916;13.352;2022-08-03T12:23:21;9.20;;;8.40;;
19087;SDS011;9676;50.916;13.352;2022-08-03T12:26:11;9.37;;;8.47;;
19087;SDS011;9676;50.916;13.352;2022-08-03T12:29:01;9.30;;;8.50;;
19087;SDS011;9676;50.916;13.352;2022-08-03T12:31:51;9.43;;;8.60;;
19087;SDS011;9676;50.916;13.352;2022-08-03T12:34:45;9.20;;;8.40;;
19087;SDS011;9676;50.916;13.352;2022-08-03T12:37:37;9.30;;;8.50;;
19087;SDS011;9676;50.916;13.352;2022-08-03T12:40:26;9.23;;;8.43;;
19087;SDS011;9676;50.916;13.352;2022-08-03T12:43:18;9.20;;;8.40;;
19087;SDS011;9676;50.916;13.352;2022-08-03T12:46:11;9.10;;;8.30;;
19087;SDS011;9676;50.916;13.352;2022-08-03T12:49:04;8.80;;;8.10;;
19087;SDS011;9676;50.916;13.352;2022-08-03T12:51:56;9.00;;;8.20;;
19087;SDS011;9676;50.916;13.352;2022-08-03T12:54:55;9.50;;;8.60;;
19087;SDS011;9676;50.916;13.352;2022-08-03T12:57:46;9.30;;;8.40;;
19087;SDS011;9676;50.916;13.352;2022-08-03T13:00:36;8.93;;;8.23;;
19087;SDS011;9676;50.916;13.352;2022-08-03T13:03:28;9.40;;;8.57;;
19087;SDS011;9676;50.916;13.352;2022-08-03T13:06:29;9.47;;;8.57;;
19087;SDS011;9676;50.916;13.352;2022-08-03T13:09:18;9.13;;;8.33;;
19087;SDS011;9676;50.916;13.352;2022-08-03T13:12:11;9.10;;;8.30;;
19087;SDS011;9676;50.916;13.352;2022-08-03T13:15:03;9.13;;;8.37;;
19087;SDS011;9676;50.916;13.352;2022-08-03T13:17:55;9.23;;;8.30;;
19087;SDS011;9676;50.916;13.352;2022-08-03T13:20:45;11.60;;;8.50;;
19087;SDS011;9676;50.916;13.352;2022-08-03T13:23:35;9.33;;;8.40;;
19087;SDS011;9676;50.916;13.352;2022-08-03T13:26:24;9.03;;;8.30;;
19087;SDS011;9676;50.916;13.352;2022-08-03T13:29:15;9.40;;;8.60;;
19087;SDS011;9676;50.916;13.352;2022-08-03T13:32:05;9.07;;;8.27;;
19087;SDS011;9676;50.916;13.352;2022-08-03T13:34:55;9.03;;;8.30;;
19087;SDS011;9676;50.916;13.352;2022-08-03T13:37:44;10.60;;;8.40;;
19087;SDS011;9676;50.916;13.352;2022-08-03T13:40:35;9.20;;;8.40;;
19087;SDS011;9676;50.916;13.352;2022-08-03T13:43:28;8.97;;;8.20;;
19087;SDS011;9676;50.916;13.352;2022-08-03T13:46:20;9.40;;;8.60;;
19087;SDS011;9676;50.916;13.352;2022-08-03T13:49:10;9.30;;;8.50;;
19087;SDS011;9676;50.916;13.352;2022-08-03T13:52:00;9.23;;;8.43;;
19087;SDS011;9676;50.916;13.352;2022-08-03T13:54:50;9.20;;;8.40;;
19087;SDS011;9676;50.916;13.352;2022-08-03T13:57:40;9.30;;;8.50;;
19087;SDS011;9676;50.916;13.352;2022-08-03T14:00:51;9.30;;;8.50;;
19087;SDS011;9676;50.916;13.352;2022-08-03T14:03:42;9.30;;;8.50;;
19087;SDS011;9676;50.916;13.352;2022-08-03T14:06:35;9.47;;;8.67;;
19087;SDS011;9676;50.916;13.352;2022-08-03T14:09:32;9.20;;;8.40;;
19087;SDS011;9676;50.916;13.352;2022-08-03T14:12:21;9.30;;;8.50;;
19087;SDS011;9676;50.916;13.352;2022-08-03T14:15:11;9.50;;;8.70;;
19087;SDS011;9676;50.916;13.352;2022-08-03T14:18:00;9.30;;;8.50;;
19087;SDS011;9676;50.916;13.352;2022-08-03T14:20:53;9.30;;;8.50;;
19087;SDS011;9676;50.916;13.352;2022-08-03T14:23:47;9.33;;;8.50;;
19087;SDS011;9676;50.916;13.352;2022-08-03T14:26:36;9.30;;;8.50;;
19087;SDS011;9676;50.916;13.352;2022-08-03T14:29:25;9.50;;;8.50;;
19087;SDS011;9676;50.916;13.352;2022-08-03T14:32:15;9.40;;;8.60;;
19087;SDS011;9676;50.916;13.352;2022-08-03T14:35:05;9.50;;;8.50;;
19087;SDS011;9676;50.916;13.352;2022-08-03T14:37:57;9.53;;;8.73;;
19087;SDS011;9676;50.916;13.352;2022-08-03T14:40:46;8.90;;;8.20;;
19087;SDS011;9676;50.916;13.352;2022-08-03T14:43:36;8.87;;;8.17;;
19087;SDS011;9676;50.916;13.352;2022-08-03T14:46:46;9.20;;;8.40;;
19087;SDS011;9676;50.916;13.352;2022-08-03T14:49:35;9.17;;;8.37;;
19087;SDS011;9676;50.916;13.352;2022-08-03T14:52:45;9.20;;;8.40;;
19087;SDS011;9676;50.916;13.352;2022-08-03T14:55:36;9.33;;;8.53;;
19087;SDS011;9676;50.916;13.352;2022-08-03T14:58:37;9.50;;;8.57;;
19087;SDS011;9676;50.916;13.352;2022-08-03T15:01:26;8.90;;;8.10;;
19087;SDS011;9676;50.916;13.352;2022-08-03T15:04:36;9.00;;;8.23;;
19087;SDS011;9676;50.916;13.352;2022-08-03T15:07:25;9.17;;;8.37;;
19087;SDS011;9676;50.916;13.352;2022-08-03T15:10:15;9.40;;;8.60;;
19087;SDS011;9676;50.916;13.352;2022-08-03T15:13:06;9.30;;;8.50;;
19087;SDS011;9676;50.916;13.352;2022-08-03T15:15:56;9.40;;;8.60;;
19087;SDS011;9676;50.916;13.352;2022-08-03T15:18:45;9.20;;;8.40;;
19087;SDS011;9676;50.916;13.352;2022-08-03T15:21:35;9.53;;;8.73;;
19087;SDS011;9676;50.916;13.352;2022-08-03T15:24:33;9.50;;;8.60;;
19087;SDS011;9676;50.916;13.352;2022-08-03T15:27:23;9.20;;;8.40;;
19087;SDS011;9676;50.916;13.352;2022-08-03T15:30:14;9.30;;;8.50;;
19087;SDS011;9676;50.916;13.352;2022-08-03T15:33:04;9.33;;;8.43;;
19087;SDS011;9676;50.916;13.352;2022-08-03T15:35:53;9.00;;;8.30;;
19087;SDS011;9676;50.916;13.352;2022-08-03T15:38:44;9.43;;;8.60;;
19087;SDS011;9676;50.916;13.352;2022-08-03T15:41:34;9.60;;;8.70;;
19087;SDS011;9676;50.916;13.352;2022-08-03T15:44:23;9.23;;;8.43;;
19087;SDS011;9676;50.916;13.352;2022-08-03T15:47:14;9.00;;;8.30;;
19087;SDS011;9676;50.916;13.352;2022-08-03T15:50:04;9.03;;;8.23;;
19087;SDS011;9676;50.916;13.352;2022-08-03T15:52:56;9.50;;;8.60;;
19087;SDS011;9676;50.916;13.352;2022-08-03T15:55:45;9.47;;;8.67;;
19087;SDS011;9676;50.916;13.352;2022-08-03T15:58:35;9.60;;;8.50;;
19087;SDS011;9676;50.916;13.352;2022-08-03T16:01:45;9.00;;;8.30;;
19087;SDS011;9676;50.916;13.352;2022-08-03T16:04:38;9.20;;;8.40;;
19087;SDS011;9676;50.916;13.352;2022-08-03T16:07:27;10.33;;;8.60;;
19087;SDS011;9676;50.916;13.352;2022-08-03T16:10:50;9.63;;;8.73;;
19087;SDS011;9676;50.916;13.352;2022-08-03T16:13:41;9.37;;;8.50;;
19087;SDS011;9676;50.916;13.352;2022-08-03T16:16:50;9.27;;;8.47;;
19087;SDS011;9676;50.916;13.352;2022-08-03T16:19:41;12.13;;;8.47;;
19087;SDS011;9676;50.916;13.352;2022-08-03T16:22:31;9.13;;;8.33;;
19087;SDS011;9676;50.916;13.352;2022-08-03T16:25:23;11.80;;;9.73;;
19087;SDS011;9676;50.916;13.352;2022-08-03T16:28:12;9.80;;;8.80;;
19087;SDS011;9676;50.916;13.352;2022-08-03T16:31:02;9.10;;;8.30;;
19087;SDS011;9676;50.916;13.352;2022-08-03T16:33:52;9.30;;;8.50;;
19087;SDS011;9676;50.916;13.352;2022-08-03T16:36:43;9.30;;;8.50;;
19087;SDS011;9676;50.916;13.352;2022-08-03T16:39:33;9.40;;;8.53;;
19087;SDS011;9676;50.916;13.352;2022-08-03T16:42:22;9.33;;;8.53;;
19087;SDS011;9676;50.916;13.352;2022-08-03T16:45:12;9.93;;;8.63;;
19087;SDS011;9676;50.916;13.352;2022-08-03T16:48:02;9.70;;;8.80;;
19087;SDS011;9676;50.916;13.352;2022-08-03T16:50:52;11.10;;;8.60;;
19087;SDS011;9676;50.916;13.352;2022-08-03T16:53:43;9.47;;;8.60;;
19087;SDS011;9676;50.916;13.352;2022-08-03T16:56:52;9.27;;;8.47;;
19087;SDS011;9676;50.916;13.352;2022-08-03T16:59:43;9.30;;;8.50;;
19087;SDS011;9676;50.916;13.352;2022-08-03T17:02:32;9.50;;;8.60;;
19087;SDS011;9676;50.916;13.352;2022-08-03T17:05:22;9.30;;;8.50;;
19087;SDS011;9676;50.916;13.352;2022-08-03T17:08:29;9.23;;;8.43;;
19087;SDS011;9676;50.916;13.352;2022-08-03T17:11:21;9.70;;;8.70;;
19087;SDS011;9676;50.916;13.352;2022-08-03T17:14:12;9.63;;;8.73;;
19087;SDS011;9676;50.916;13.352;2022-08-03T17:17:02;9.40;;;8.60;;
19087;SDS011;9676;50.916;13.352;2022-08-03T17:20:04;16.00;;;8.80;;
19087;SDS011;9676;50.916;13.352;2022-08-03T17:22:58;9.23;;;8.43;;
19087;SDS011;9676;50.916;13.352;2022-08-03T17:25:57;9.67;;;8.77;;